createdAt,value
2018-02-06T00:04:41.847Z,23.20
2018-02-06T00:09:48.247Z,26.00
2018-02-06T00:14:51.530Z,17.97
2018-02-06T00:19:54.376Z,27.00
2018-02-06T00:24:57.447Z,25.17
2018-02-06T00:30:00.455Z,18.83
2018-02-06T00:35:03.318Z,14.83
2018-02-06T00:40:07.979Z,28.03
2018-02-06T00:45:11.977Z,25.57
2018-02-06T00:50:16.745Z,34.27
2018-02-06T00:55:19.585Z,21.73
2018-02-06T01:00:22.691Z,24.67
2018-02-06T01:05:26.601Z,27.40
2018-02-06T01:10:30.104Z,26.97
2018-02-06T01:15:32.956Z,21.07
2018-02-06T01:20:38.493Z,21.47
2018-02-06T01:25:41.303Z,30.53
2018-02-06T01:30:44.486Z,26.30
2018-02-06T01:35:47.580Z,24.73
2018-02-06T01:40:50.726Z,28.73
2018-02-06T01:45:54.432Z,26.13
2018-02-06T01:50:58.377Z,28.63
2018-02-06T01:56:01.505Z,29.87
2018-02-06T02:01:05.111Z,20.97
2018-02-06T02:06:08.131Z,38.30
2018-02-06T02:11:11.956Z,28.27
2018-02-06T02:16:15.074Z,24.33
2018-02-06T02:21:17.975Z,28.87
2018-02-06T02:26:22.464Z,33.73
2018-02-06T02:31:25.242Z,24.47
2018-02-06T02:36:29.262Z,23.97
2018-02-06T02:41:32.513Z,30.10
2018-02-06T04:42:53.945Z,33.47
2018-02-06T04:47:56.960Z,34.73
2018-02-06T04:52:59.772Z,30.40
2018-02-06T04:58:04.711Z,33.10
2018-02-06T05:03:08.413Z,36.57
2018-02-06T05:08:11.342Z,41.97
2018-02-06T05:13:14.043Z,39.73
2018-02-06T05:18:19.282Z,30.47
2018-02-06T05:23:22.922Z,37.73
2018-02-06T05:28:25.827Z,38.17
2018-02-06T05:33:30.174Z,34.40
2018-02-06T05:38:33.865Z,32.17
2018-02-06T05:43:37.945Z,32.40
2018-02-06T05:48:42.030Z,28.40
2018-02-06T05:53:46.142Z,27.73
2018-02-06T05:58:51.837Z,41.03
2018-02-06T06:03:55.286Z,31.67
2018-02-06T06:09:00.393Z,30.80
2018-02-06T06:14:07.334Z,28.37
2018-02-06T06:19:11.690Z,28.93
2018-02-06T06:24:15.996Z,42.10
2018-02-06T06:29:22.573Z,33.17
2018-02-06T06:34:29.997Z,43.53
2018-02-06T06:39:33.440Z,40.50
2018-02-06T06:44:36.623Z,35.97
2018-02-06T06:49:40.472Z,47.20
2018-02-06T06:54:46.059Z,61.27
2018-02-06T06:59:49.939Z,33.27
2018-02-06T07:04:53.128Z,36.30
2018-02-06T07:09:56.792Z,35.37
2018-02-06T07:15:00.672Z,36.80
2018-02-06T07:20:04.449Z,33.67
2018-02-06T07:25:10.262Z,29.30
2018-02-06T07:30:14.947Z,28.37
2018-02-06T07:35:19.610Z,40.83
2018-02-06T07:40:25.722Z,31.80
2018-02-06T07:45:32.954Z,36.17
2018-02-06T07:50:36.881Z,32.13
2018-02-06T07:55:41.320Z,41.77
2018-02-06T08:00:46.045Z,39.87
2018-02-06T08:05:50.228Z,36.10
2018-02-06T08:10:53.624Z,29.63
2018-02-06T08:15:58.730Z,35.33
2018-02-06T08:21:02.811Z,38.80
2018-02-06T08:26:05.963Z,49.93
2018-02-06T08:31:09.928Z,36.20
2018-02-06T08:36:13.594Z,39.80
2018-02-06T08:41:16.615Z,34.67
2018-02-06T08:46:19.834Z,36.80
2018-02-06T08:51:23.360Z,25.60
2018-02-06T08:56:27.133Z,26.70
2018-02-06T09:01:30.211Z,22.57
2018-02-06T09:06:34.048Z,24.23
2018-02-06T09:11:37.825Z,20.93
2018-02-06T09:16:42.370Z,21.83
2018-02-06T09:21:46.001Z,24.70
2018-02-06T09:26:50.765Z,18.17
2018-02-06T09:31:53.647Z,15.47
2018-02-06T09:36:57.352Z,28.13
2018-02-06T09:42:00.754Z,19.90
2018-02-06T09:47:03.952Z,23.53
2018-02-06T09:52:07.860Z,22.00
2018-02-06T09:57:11.025Z,28.53
2018-02-06T10:02:15.090Z,23.07
2018-02-06T10:07:18.076Z,19.60
2018-02-06T10:12:21.412Z,22.30
2018-02-06T10:17:24.467Z,22.83
2018-02-06T10:22:27.830Z,23.50
2018-02-06T10:27:32.651Z,13.47
2018-02-06T10:32:38.461Z,28.57
2018-02-06T10:37:41.585Z,25.97
2018-02-06T10:42:46.047Z,28.03
2018-02-06T10:47:53.427Z,31.30
2018-02-06T10:52:57.572Z,25.17
2018-02-06T10:58:00.661Z,27.77
2018-02-06T11:03:03.648Z,22.77
2018-02-06T11:08:08.892Z,24.73
2018-02-06T11:13:11.982Z,25.67
2018-02-06T11:18:14.712Z,26.40
2018-02-06T11:23:18.063Z,28.70
2018-02-06T11:28:22.301Z,35.33
2018-02-06T11:33:25.500Z,21.20
2018-02-06T11:38:29.430Z,27.87
2018-02-06T11:43:33.373Z,27.90
2018-02-06T11:48:36.381Z,23.07
2018-02-06T11:53:40.139Z,20.37
2018-02-06T11:58:44.567Z,22.87
2018-02-06T12:03:47.455Z,22.00
2018-02-06T12:08:50.503Z,20.90
2018-02-06T12:13:54.276Z,26.00
2018-02-06T12:18:57.203Z,37.20
2018-02-06T12:24:00.028Z,26.17
2018-02-06T12:29:03.618Z,26.37
2018-02-06T12:34:07.492Z,27.10
2018-02-06T12:39:10.415Z,23.53
2018-02-06T12:44:13.485Z,21.57
2018-02-06T12:49:16.628Z,22.27
2018-02-06T12:54:19.767Z,27.67
2018-02-06T12:59:22.755Z,23.03
2018-02-06T13:04:25.766Z,25.90
2018-02-06T13:09:30.412Z,23.80
2018-02-06T13:19:42.306Z,27.40
2018-02-06T13:24:46.048Z,20.53
2018-02-06T13:29:49.834Z,31.83
2018-02-06T13:34:53.924Z,24.73
2018-02-06T13:39:56.621Z,23.40
2018-02-06T13:45:00.167Z,15.17
2018-02-06T13:50:03.870Z,24.10
2018-02-06T13:55:06.820Z,25.70
2018-02-06T14:00:09.998Z,19.67
2018-02-06T14:05:13.023Z,40.03
2018-02-06T14:10:15.859Z,22.40
2018-02-06T14:15:19.714Z,23.47
2018-02-06T14:20:22.547Z,22.53
2018-02-06T14:25:26.583Z,24.90
2018-02-06T14:30:30.248Z,30.17
2018-02-06T14:35:34.667Z,31.47
2018-02-06T14:40:37.241Z,24.83
2018-02-06T14:45:40.253Z,26.03
2018-02-06T14:50:43.217Z,20.97
2018-02-06T14:55:46.364Z,23.70
2018-02-06T15:00:49.606Z,27.20
2018-02-06T15:05:53.045Z,23.83
2018-02-06T15:10:56.183Z,25.57
2018-02-06T15:15:59.027Z,17.23
2018-02-06T15:26:09.766Z,28.30
2018-02-06T15:31:13.655Z,23.20
2018-02-06T15:36:16.900Z,25.80
2018-02-06T15:41:20.237Z,27.83
2018-02-06T15:46:23.533Z,25.13
2018-02-06T15:51:26.506Z,27.17
2018-02-06T15:56:29.471Z,24.93
2018-02-06T16:01:32.935Z,27.47
2018-02-06T16:06:37.125Z,27.50
2018-02-06T16:11:40.064Z,26.90
2018-02-06T16:16:42.997Z,25.30
2018-02-06T16:21:45.944Z,31.83
2018-02-06T16:26:49.552Z,37.87
2018-02-06T16:31:52.261Z,34.80
2018-02-06T16:36:55.727Z,27.37
2018-02-06T16:41:58.542Z,31.13
2018-02-06T16:47:02.263Z,33.53
2018-02-06T16:52:05.807Z,33.90
2018-02-06T16:57:09.461Z,37.23
2018-02-06T17:02:25.341Z,53.17
2018-02-06T17:07:29.411Z,37.17
2018-02-06T17:12:34.990Z,34.27
2018-02-06T17:17:37.863Z,33.30
2018-02-06T17:22:43.314Z,42.47
2018-02-06T17:27:46.775Z,41.30
2018-02-06T17:32:49.800Z,42.17
2018-02-06T17:37:53.721Z,46.70
2018-02-06T17:43:06.966Z,39.80
2018-02-06T17:48:21.608Z,55.47
2018-02-06T17:53:25.218Z,46.07
2018-02-06T17:58:35.339Z,44.47
2018-02-06T18:03:41.158Z,45.83
2018-02-06T18:08:54.478Z,47.90
2018-02-06T18:19:37.333Z,46.93
2018-02-06T18:24:41.467Z,33.53
2018-02-06T18:29:45.098Z,46.50
2018-02-06T18:34:47.986Z,42.10
2018-02-06T18:39:53.334Z,45.60
2018-02-06T18:44:57.557Z,53.73
2018-02-06T18:50:01.148Z,42.57
2018-02-06T18:55:05.196Z,40.20
2018-02-06T19:00:09.818Z,34.33
2018-02-06T19:05:16.609Z,44.63
2018-02-06T19:10:21.176Z,44.90
2018-02-06T19:15:24.664Z,36.57
2018-02-06T19:20:27.665Z,38.17
2018-02-06T19:25:30.479Z,49.60
2018-02-06T19:30:34.383Z,40.33
2018-02-06T19:35:37.536Z,39.13
2018-02-06T19:40:41.719Z,44.40
2018-02-06T19:45:46.221Z,38.37
2018-02-06T19:50:51.581Z,35.87
2018-02-06T19:55:54.679Z,42.53
2018-02-06T20:00:57.622Z,47.67
2018-02-06T20:06:00.653Z,46.27
2018-02-06T20:11:05.383Z,46.27
2018-02-06T20:16:08.512Z,38.73
2018-02-06T20:21:12.099Z,43.43
2018-02-06T20:26:15.464Z,38.47
2018-02-06T20:31:18.612Z,50.73
2018-02-06T20:36:24.193Z,39.43
2018-02-06T20:41:27.331Z,45.77
2018-02-06T20:46:30.694Z,37.70
2018-02-06T20:51:33.803Z,43.53
2018-02-06T20:56:37.382Z,43.60
2018-02-06T21:01:42.954Z,46.50
2018-02-06T21:06:45.794Z,38.93
2018-02-06T21:11:49.290Z,44.23
2018-02-06T21:16:53.874Z,45.80
2018-02-06T21:21:56.836Z,43.13
2018-02-06T21:26:59.718Z,45.23
2018-02-06T21:32:02.963Z,43.37
2018-02-06T21:37:07.133Z,44.03
2018-02-06T21:42:10.190Z,44.57
2018-02-06T21:47:13.728Z,55.00
2018-02-06T21:52:17.399Z,43.50
2018-02-06T21:57:21.192Z,49.57
2018-02-06T22:02:25.173Z,39.87
2018-02-06T22:07:28.391Z,37.37
2018-02-06T22:12:32.129Z,49.20
2018-02-06T22:17:36.921Z,46.23
2018-02-06T22:22:40.042Z,51.23
2018-02-06T22:27:43.055Z,42.37
2018-02-06T22:32:46.800Z,47.43
2018-02-06T22:37:50.644Z,44.33
2018-02-06T22:42:53.556Z,56.10
2018-02-06T22:47:57.370Z,55.17
2018-02-06T22:53:01.757Z,45.63
2018-02-06T22:58:05.124Z,57.70
2018-02-06T23:03:09.701Z,43.90
2018-02-06T23:08:12.684Z,43.00
2018-02-06T23:13:16.532Z,46.63
2018-02-06T23:18:20.397Z,38.97
2018-02-06T23:23:25.251Z,41.03
2018-02-06T23:28:34.129Z,40.20
2018-02-06T23:33:49.521Z,51.87
2018-02-06T23:39:16.022Z,53.00
2018-02-06T23:44:22.045Z,41.67
2018-02-06T23:49:30.728Z,48.70
2018-02-06T23:54:47.946Z,56.43
